createdAt,value
2023-05-21T00:01:54.153Z,1.70
2023-05-21T00:04:20.920Z,1.88
2023-05-21T00:06:47.469Z,1.80
2023-05-21T00:09:14.050Z,1.85
2023-05-21T00:11:40.706Z,1.92
2023-05-21T00:14:07.347Z,1.98
2023-05-21T00:16:33.867Z,2.00
2023-05-21T00:19:00.533Z,1.92
2023-05-21T00:21:27.104Z,1.80
2023-05-21T00:23:54.323Z,1.92
2023-05-21T00:26:21.649Z,1.70
2023-05-21T00:28:48.203Z,3.42
2023-05-21T00:31:16.019Z,1.80
2023-05-21T00:33:43.132Z,2.05
2023-05-21T00:36:10.337Z,1.70
2023-05-21T00:38:38.123Z,1.70
2023-05-21T00:41:04.834Z,1.60
2023-05-21T00:43:32.655Z,1.80
2023-05-21T00:45:59.541Z,1.58
2023-05-21T00:48:26.259Z,1.75
2023-05-21T00:50:53.266Z,2.00
2023-05-21T00:53:19.975Z,2.03
2023-05-21T00:55:46.789Z,1.90
2023-05-21T00:58:13.470Z,1.90
2023-05-21T01:00:40.781Z,1.63
2023-05-21T01:03:07.449Z,1.52
2023-05-21T01:05:34.356Z,1.60
2023-05-21T01:08:01.607Z,2.00
2023-05-21T01:10:29.027Z,1.52
2023-05-21T01:12:58.067Z,1.90
2023-05-21T01:15:25.027Z,1.77
2023-05-21T01:17:51.973Z,1.67
2023-05-21T01:20:20.209Z,2.20
2023-05-21T01:22:55.893Z,1.63
2023-05-21T01:25:23.401Z,1.60
2023-05-21T01:27:51.123Z,1.80
2023-05-21T01:30:19.501Z,1.70
2023-05-21T01:33:17.531Z,1.73
2023-05-21T01:38:17.961Z,1.80
2023-05-21T01:40:58.871Z,1.63
2023-05-21T01:43:29.315Z,1.83
2023-05-21T01:45:58.884Z,1.70
2023-05-21T01:48:29.946Z,1.70
2023-05-21T01:51:00.798Z,2.15
2023-05-21T01:53:27.709Z,1.98
2023-05-21T01:55:54.623Z,1.83
2023-05-21T01:58:22.753Z,1.98
2023-05-21T02:00:51.146Z,1.60
2023-05-21T02:03:19.498Z,1.98
2023-05-21T02:05:47.080Z,1.65
2023-05-21T02:08:15.348Z,1.52
2023-05-21T02:10:42.094Z,2.00
2023-05-21T02:13:08.646Z,1.95
2023-05-21T02:15:35.401Z,1.70
2023-05-21T02:18:02.557Z,1.80
2023-05-21T02:20:30.604Z,1.60
2023-05-21T02:22:57.485Z,2.00
2023-05-21T02:25:24.029Z,2.10
2023-05-21T02:27:53.652Z,1.80
2023-05-21T02:30:20.313Z,2.05
2023-05-21T02:32:48.939Z,1.98
2023-05-21T02:35:15.861Z,1.65
2023-05-21T02:37:43.980Z,1.60
2023-05-21T02:40:11.500Z,2.05
2023-05-21T02:42:40.104Z,2.10
2023-05-21T02:45:12.214Z,1.90
2023-05-21T02:47:39.248Z,2.00
2023-05-21T02:50:09.618Z,1.60
2023-05-21T02:52:36.476Z,1.60
2023-05-21T02:55:03.153Z,2.13
2023-05-21T02:57:29.660Z,2.22
2023-05-21T02:59:56.417Z,2.10
2023-05-21T03:02:23.494Z,2.00
2023-05-21T03:04:51.472Z,1.92
2023-05-21T03:07:19.789Z,2.00
2023-05-21T03:09:46.804Z,1.90
2023-05-21T03:12:13.592Z,2.00
2023-05-21T03:14:40.201Z,2.00
2023-05-21T03:17:07.044Z,2.00
2023-05-21T03:19:35.854Z,1.77
2023-05-21T03:22:03.876Z,2.17
2023-05-21T03:24:30.834Z,2.03
2023-05-21T03:26:57.585Z,1.90
2023-05-21T03:29:24.085Z,2.03
2023-05-21T03:31:52.898Z,1.80
2023-05-21T03:34:20.161Z,2.00
2023-05-21T03:36:47.525Z,2.10
2023-05-21T03:39:14.551Z,2.40
2023-05-21T03:41:41.291Z,2.03
2023-05-21T03:44:08.086Z,2.00
2023-05-21T03:46:34.708Z,2.10
2023-05-21T03:49:01.282Z,2.05
2023-05-21T03:51:28.014Z,1.92
2023-05-21T03:53:54.522Z,2.20
2023-05-21T03:56:21.630Z,2.20
2023-05-21T03:58:48.249Z,2.30
2023-05-21T04:01:14.818Z,2.10
2023-05-21T04:03:41.472Z,2.20
2023-05-21T04:06:10.430Z,2.15
2023-05-21T04:08:38.074Z,2.08
2023-05-21T04:11:04.686Z,1.88
2023-05-21T04:13:31.227Z,2.47
2023-05-21T04:15:57.831Z,2.40
2023-05-21T04:18:25.997Z,2.42
2023-05-21T04:20:52.964Z,2.10
2023-05-21T04:23:19.594Z,1.98
2023-05-21T04:25:50.900Z,2.35
2023-05-21T04:28:20.238Z,2.20
2023-05-21T04:30:47.771Z,2.00
2023-05-21T04:33:18.060Z,2.08
2023-05-21T04:35:49.935Z,2.10
2023-05-21T04:38:19.917Z,1.80
2023-05-21T04:40:50.945Z,2.05
2023-05-21T04:43:17.817Z,2.25
2023-05-21T04:45:45.144Z,2.15
2023-05-21T04:48:12.621Z,2.30
2023-05-21T04:50:41.546Z,2.28
2023-05-21T04:53:08.295Z,2.40
2023-05-21T04:55:39.693Z,2.30
2023-05-21T04:58:07.313Z,2.42
2023-05-21T05:00:34.433Z,2.35
2023-05-21T05:03:01.211Z,2.28
2023-05-21T05:05:27.819Z,2.08
2023-05-21T05:07:54.361Z,2.22
2023-05-21T05:10:20.888Z,2.22
2023-05-21T05:12:48.693Z,2.47
2023-05-21T05:15:16.022Z,2.17
2023-05-21T05:17:42.608Z,2.40
2023-05-21T05:20:10.684Z,2.10
2023-05-21T05:22:37.293Z,2.53
2023-05-21T05:25:04.067Z,2.55
2023-05-21T05:27:30.747Z,2.40
2023-05-21T05:29:57.313Z,2.40
2023-05-21T05:32:23.894Z,2.35
2023-05-21T05:34:50.700Z,2.33
2023-05-21T05:37:17.347Z,2.40
2023-05-21T05:39:43.846Z,2.40
2023-05-21T05:42:10.374Z,2.60
2023-05-21T05:44:36.975Z,2.42
2023-05-21T05:47:03.720Z,2.17
2023-05-21T05:49:30.390Z,2.65
2023-05-21T05:51:56.965Z,2.60
2023-05-21T05:54:23.477Z,2.30
2023-05-21T05:56:49.986Z,2.67
2023-05-21T05:59:16.546Z,2.58
2023-05-21T06:01:43.104Z,2.50
2023-05-21T06:04:09.648Z,2.40
2023-05-21T06:06:36.780Z,2.72
2023-05-21T06:09:03.407Z,2.60
2023-05-21T06:11:29.898Z,2.53
2023-05-21T06:13:56.857Z,2.40
2023-05-21T06:16:23.434Z,2.50
2023-05-21T06:18:50.025Z,2.60
2023-05-21T06:21:16.684Z,2.88
2023-05-21T06:23:43.235Z,2.17
2023-05-21T06:26:09.795Z,2.33
2023-05-21T06:28:36.300Z,2.78
2023-05-21T06:31:02.844Z,2.42
2023-05-21T06:33:29.497Z,2.42
2023-05-21T06:35:56.186Z,2.55
2023-05-21T06:38:22.787Z,2.38
2023-05-21T06:40:49.545Z,1.98
2023-05-21T06:43:16.065Z,2.13
2023-05-21T06:45:42.600Z,2.17
2023-05-21T06:48:09.272Z,2.30
2023-05-21T06:50:35.941Z,2.20
2023-05-21T06:53:02.584Z,2.13
2023-05-21T06:55:29.112Z,2.53
2023-05-21T06:57:57.611Z,2.40
2023-05-21T07:00:24.374Z,2.30
2023-05-21T07:02:50.979Z,2.28
2023-05-21T07:05:17.662Z,2.22
2023-05-21T07:07:44.327Z,2.33
2023-05-21T07:10:11.037Z,2.28
2023-05-21T07:12:37.664Z,2.20
2023-05-21T07:15:04.420Z,2.20
2023-05-21T07:17:31.008Z,2.38
2023-05-21T07:19:57.546Z,1.98
2023-05-21T07:22:25.512Z,1.90
2023-05-21T07:24:53.177Z,2.20
2023-05-21T07:29:51.060Z,2.10
2023-05-21T07:32:17.595Z,2.40
2023-05-21T07:34:44.147Z,1.85
2023-05-21T07:37:10.726Z,2.22
2023-05-21T07:39:37.842Z,2.15
2023-05-21T07:42:04.522Z,2.05
2023-05-21T07:44:31.935Z,2.10
2023-05-21T07:46:58.494Z,2.53
2023-05-21T07:49:25.031Z,2.25
2023-05-21T07:51:51.687Z,2.25
2023-05-21T07:54:19.664Z,2.00
2023-05-21T07:56:46.359Z,2.05
2023-05-21T07:59:14.610Z,2.10
2023-05-21T08:01:42.047Z,2.25
2023-05-21T08:04:08.893Z,2.28
2023-05-21T08:06:37.467Z,2.25
2023-05-21T08:09:06.191Z,2.10
2023-05-21T08:11:33.160Z,2.38
2023-05-21T08:13:59.927Z,2.40
2023-05-21T08:16:26.542Z,2.30
2023-05-21T08:18:53.295Z,2.40
2023-05-21T08:21:19.960Z,2.53
2023-05-21T08:23:46.513Z,2.20
2023-05-21T08:26:13.125Z,2.22
2023-05-21T08:28:39.661Z,2.53
2023-05-21T08:31:06.256Z,2.33
2023-05-21T08:33:37.016Z,2.28
2023-05-21T08:36:07.537Z,2.28
2023-05-21T08:38:35.052Z,2.22
2023-05-21T08:41:01.656Z,2.40
2023-05-21T08:43:29.467Z,2.42
2023-05-21T08:45:59.123Z,2.53
2023-05-21T08:48:26.247Z,2.20
2023-05-21T08:50:54.419Z,2.28
2023-05-21T08:53:28.137Z,2.22
2023-05-21T08:55:57.127Z,2.20
2023-05-21T08:58:24.212Z,2.50
2023-05-21T09:00:50.833Z,2.17
2023-05-21T09:03:17.607Z,2.53
2023-05-21T09:05:45.738Z,2.88
2023-05-21T09:08:23.012Z,2.75
2023-05-21T09:10:50.929Z,2.67
2023-05-21T09:13:18.708Z,2.75
2023-05-21T09:15:45.946Z,3.00
2023-05-21T09:18:13.562Z,2.97
2023-05-21T09:20:40.902Z,2.40
2023-05-21T09:23:12.560Z,2.90
2023-05-21T09:25:39.644Z,2.90
2023-05-21T09:28:15.019Z,3.22
2023-05-21T09:30:53.436Z,2.80
2023-05-21T09:33:29.357Z,3.33
2023-05-21T09:35:56.221Z,2.90
2023-05-21T09:38:26.947Z,2.72
2023-05-21T09:40:56.803Z,2.85
2023-05-21T09:43:23.525Z,3.03
2023-05-21T09:45:52.402Z,2.75
2023-05-21T09:48:34.299Z,2.65
2023-05-21T09:51:08.118Z,2.70
2023-05-21T09:53:34.761Z,3.10
2023-05-21T09:56:01.562Z,2.97
2023-05-21T09:58:28.703Z,3.03
2023-05-21T10:00:55.279Z,2.33
2023-05-21T10:03:26.739Z,2.65
2023-05-21T10:05:54.452Z,2.67
2023-05-21T10:08:25.361Z,2.28
2023-05-21T10:10:52.096Z,2.40
2023-05-21T10:13:21.900Z,2.50
2023-05-21T10:15:55.613Z,2.67
2023-05-21T10:20:49.409Z,2.05
2023-05-21T10:23:16.842Z,2.40
2023-05-21T10:25:44.231Z,2.00
2023-05-21T10:28:11.707Z,2.33
2023-05-21T10:30:39.402Z,2.60
2023-05-21T10:33:06.344Z,2.40
2023-05-21T10:35:34.082Z,2.53
2023-05-21T10:38:03.976Z,2.50
2023-05-21T10:40:30.631Z,2.58
2023-05-21T10:43:06.183Z,2.55
2023-05-21T10:45:51.392Z,2.72
2023-05-21T10:48:42.600Z,2.25
2023-05-21T10:51:19.260Z,2.67
2023-05-21T10:54:16.220Z,2.33
2023-05-21T10:56:48.976Z,2.33
2023-05-21T10:59:29.497Z,2.47
2023-05-21T11:01:57.009Z,2.55
2023-05-21T11:04:27.419Z,2.47
2023-05-21T11:06:54.221Z,2.45
2023-05-21T11:09:20.905Z,2.33
2023-05-21T11:11:58.197Z,2.25
2023-05-21T11:14:41.210Z,2.88
2023-05-21T11:17:16.403Z,2.28
2023-05-21T11:19:47.366Z,2.60
2023-05-21T11:22:21.668Z,2.38
2023-05-21T11:24:51.165Z,2.45
2023-05-21T11:27:33.861Z,2.50
2023-05-21T11:30:03.291Z,2.25
2023-05-21T11:32:29.926Z,2.22
2023-05-21T11:35:01.386Z,2.25
2023-05-21T11:37:31.876Z,2.67
2023-05-21T11:40:16.508Z,2.75
2023-05-21T11:42:44.141Z,2.45
2023-05-21T11:45:11.388Z,2.50
2023-05-21T11:47:40.192Z,2.40
2023-05-21T11:50:12.980Z,2.85
2023-05-21T11:52:40.631Z,2.70
2023-05-21T11:55:07.591Z,3.10
2023-05-21T11:57:34.254Z,2.72
2023-05-21T12:00:02.238Z,2.85
2023-05-21T12:02:32.291Z,2.92
2023-05-21T12:05:00.408Z,2.70
2023-05-21T12:07:31.425Z,3.00
2023-05-21T12:09:58.727Z,2.92
2023-05-21T12:12:30.803Z,3.17
2023-05-21T12:15:02.653Z,3.17
2023-05-21T12:17:31.537Z,3.03
2023-05-21T12:19:58.154Z,3.13
2023-05-21T12:22:25.208Z,3.03
2023-05-21T12:24:53.745Z,3.38
2023-05-21T12:27:22.155Z,3.17
2023-05-21T12:29:51.964Z,3.25
2023-05-21T12:32:20.616Z,3.20
2023-05-21T12:34:54.586Z,3.03
2023-05-21T12:37:26.384Z,2.90
2023-05-21T12:39:59.545Z,3.03
2023-05-21T12:42:27.954Z,3.30
2023-05-21T12:44:54.581Z,3.40
2023-05-21T12:47:24.533Z,3.17
2023-05-21T12:49:55.876Z,3.60
2023-05-21T12:52:22.594Z,3.22
2023-05-21T12:54:53.912Z,3.53
2023-05-21T12:57:25.696Z,3.35
2023-05-21T12:59:56.796Z,3.10
2023-05-21T13:02:25.763Z,3.10
2023-05-21T13:05:00.246Z,3.35
2023-05-21T13:07:28.376Z,3.58
2023-05-21T13:09:55.572Z,3.28
2023-05-21T13:12:23.912Z,3.30
2023-05-21T13:14:51.998Z,3.17
2023-05-21T13:17:19.453Z,3.03
2023-05-21T13:20:14.257Z,3.75
2023-05-21T13:22:51.514Z,4.90
2023-05-21T13:25:21.253Z,3.78
2023-05-21T13:27:52.562Z,3.70
2023-05-21T13:30:20.241Z,3.70
2023-05-21T13:32:49.129Z,4.03
2023-05-21T13:35:16.727Z,4.50
2023-05-21T13:37:43.989Z,4.72
2023-05-21T13:40:12.449Z,3.80
2023-05-21T13:42:39.190Z,3.70
2023-05-21T13:45:10.716Z,3.80
2023-05-21T13:47:40.294Z,4.40
2023-05-21T13:50:08.185Z,4.22
2023-05-21T13:52:34.928Z,3.75
2023-05-21T13:55:01.501Z,3.92
2023-05-21T13:57:30.689Z,4.20
2023-05-21T13:59:58.325Z,4.40
2023-05-21T14:02:25.022Z,3.90
2023-05-21T14:04:51.703Z,4.10
2023-05-21T14:07:18.308Z,4.28
2023-05-21T14:09:47.644Z,4.85
2023-05-21T14:12:14.278Z,4.85
2023-05-21T14:14:41.435Z,4.45
2023-05-21T14:17:07.987Z,4.30
2023-05-21T14:19:34.572Z,4.30
2023-05-21T14:22:01.223Z,4.80
2023-05-21T14:24:27.754Z,4.35
2023-05-21T14:26:54.303Z,4.25
2023-05-21T14:29:20.935Z,4.30
2023-05-21T14:31:47.494Z,3.92
2023-05-21T14:34:14.080Z,3.97
2023-05-21T14:36:40.622Z,4.43
2023-05-21T14:39:07.141Z,4.80
2023-05-21T14:41:33.729Z,4.03
2023-05-21T14:44:00.398Z,4.20
2023-05-21T14:46:26.992Z,3.80
2023-05-21T14:48:55.378Z,4.60
2023-05-21T14:51:22.202Z,4.47
2023-05-21T14:53:48.730Z,3.85
2023-05-21T14:56:15.585Z,4.00
2023-05-21T14:58:42.167Z,4.38
2023-05-21T15:01:08.868Z,4.03
2023-05-21T15:03:35.589Z,4.75
2023-05-21T15:06:02.304Z,4.20
2023-05-21T15:08:28.819Z,4.00
2023-05-21T15:10:55.391Z,3.90
2023-05-21T15:13:21.966Z,4.07
2023-05-21T15:15:49.550Z,4.13
2023-05-21T15:18:16.279Z,4.20
2023-05-21T15:20:42.822Z,3.95
2023-05-21T15:23:16.920Z,3.60
2023-05-21T15:25:45.098Z,3.50
2023-05-21T15:28:14.371Z,3.67
2023-05-21T15:30:41.037Z,3.35
2023-05-21T15:33:07.952Z,3.53
2023-05-21T15:35:38.045Z,3.55
2023-05-21T15:38:05.019Z,3.42
2023-05-21T15:40:32.428Z,3.40
2023-05-21T15:42:59.077Z,3.83
2023-05-21T15:45:25.675Z,3.78
2023-05-21T15:47:52.325Z,3.45
2023-05-21T15:50:18.938Z,3.55
2023-05-21T15:52:45.540Z,3.95
2023-05-21T15:55:13.862Z,3.47
2023-05-21T15:57:40.450Z,3.85
2023-05-21T16:00:08.178Z,4.18
2023-05-21T16:02:34.732Z,4.03
2023-05-21T16:05:01.291Z,3.42
2023-05-21T16:07:27.792Z,4.10
2023-05-21T16:09:54.312Z,3.53
2023-05-21T16:12:20.910Z,3.80
2023-05-21T16:14:50.081Z,3.40
2023-05-21T16:17:17.172Z,3.67
2023-05-21T16:19:43.774Z,3.72
2023-05-21T16:22:10.961Z,3.72
2023-05-21T16:24:37.953Z,3.75
2023-05-21T16:27:05.009Z,3.53
2023-05-21T16:29:31.879Z,3.85
2023-05-21T16:31:58.502Z,3.20
2023-05-21T16:34:25.054Z,4.20
2023-05-21T16:36:51.790Z,3.38
2023-05-21T16:39:18.396Z,3.60
2023-05-21T16:41:44.967Z,3.35
2023-05-21T16:44:11.584Z,3.00
2023-05-21T16:46:38.309Z,3.45
2023-05-21T16:49:05.271Z,3.53
2023-05-21T16:51:31.879Z,3.70
2023-05-21T16:53:58.430Z,3.60
2023-05-21T16:56:25.140Z,3.13
2023-05-21T16:58:51.658Z,4.00
2023-05-21T17:01:18.251Z,3.40
2023-05-21T17:03:45.090Z,3.67
2023-05-21T17:06:11.753Z,3.47
2023-05-21T17:08:38.309Z,3.17
2023-05-21T17:11:04.880Z,3.58
2023-05-21T17:13:31.395Z,3.63
2023-05-21T17:15:57.965Z,3.30
2023-05-21T17:18:24.584Z,3.20
2023-05-21T17:20:51.138Z,3.47
2023-05-21T17:23:17.814Z,3.72
2023-05-21T17:25:44.379Z,3.67
2023-05-21T17:28:11.285Z,3.65
2023-05-21T17:30:37.948Z,3.38
2023-05-21T17:33:04.606Z,3.30
2023-05-21T17:35:31.210Z,3.28
2023-05-21T17:37:57.867Z,3.05
2023-05-21T17:40:24.999Z,3.22
2023-05-21T17:42:52.608Z,3.38
2023-05-21T17:47:46.310Z,3.30
2023-05-21T17:50:13.022Z,3.13
2023-05-21T17:52:39.763Z,3.03
2023-05-21T17:55:07.779Z,3.40
2023-05-21T17:57:35.945Z,3.33
2023-05-21T18:00:04.887Z,3.47
2023-05-21T18:02:31.545Z,3.45
2023-05-21T18:04:58.147Z,3.47
2023-05-21T18:07:24.696Z,3.10
2023-05-21T18:09:51.329Z,3.17
2023-05-21T18:12:17.920Z,3.30
2023-05-21T18:14:44.486Z,3.30
2023-05-21T18:17:11.110Z,3.10
2023-05-21T18:19:37.748Z,3.45
2023-05-21T18:22:05.156Z,3.65
2023-05-21T18:24:31.690Z,3.35
2023-05-21T18:26:58.443Z,3.05
2023-05-21T18:29:25.019Z,3.60
2023-05-21T18:31:51.687Z,3.42
2023-05-21T18:34:18.273Z,3.45
2023-05-21T18:36:44.841Z,3.40
2023-05-21T18:39:11.549Z,3.30
2023-05-21T18:41:39.124Z,3.55
2023-05-21T18:44:06.247Z,3.80
2023-05-21T18:46:33.197Z,3.78
2023-05-21T18:49:00.147Z,3.70
2023-05-21T18:51:26.784Z,4.35
2023-05-21T18:53:53.369Z,3.53
2023-05-21T18:56:19.900Z,3.95
2023-05-21T18:58:47.549Z,4.45
2023-05-21T19:01:14.307Z,4.32
2023-05-21T19:03:41.028Z,4.72
2023-05-21T19:06:08.374Z,5.07
2023-05-21T19:08:34.972Z,4.35
2023-05-21T19:11:01.657Z,4.70
2023-05-21T19:13:28.208Z,4.60
2023-05-21T19:15:54.956Z,5.82
2023-05-21T19:18:21.511Z,6.30
2023-05-21T19:20:48.077Z,5.63
2023-05-21T19:23:15.182Z,4.97
2023-05-21T19:25:41.711Z,5.35
2023-05-21T19:28:08.238Z,5.03
2023-05-21T19:30:36.462Z,5.10
2023-05-21T19:33:03.496Z,5.60
2023-05-21T19:35:30.356Z,5.57
2023-05-21T19:38:00.182Z,6.20
2023-05-21T19:40:27.794Z,7.05
2023-05-21T19:42:54.338Z,6.15
2023-05-21T19:45:21.513Z,6.22
2023-05-21T19:47:48.381Z,6.18
2023-05-21T19:50:15.078Z,5.88
2023-05-21T19:52:41.635Z,5.72
2023-05-21T19:55:10.253Z,5.43
2023-05-21T19:57:37.237Z,6.00
2023-05-21T20:00:05.433Z,5.32
2023-05-21T20:02:32.147Z,5.38
2023-05-21T20:04:59.210Z,5.43
2023-05-21T20:07:25.912Z,4.95
2023-05-21T20:09:52.576Z,5.28
2023-05-21T20:12:19.457Z,5.13
2023-05-21T20:14:48.756Z,5.32
2023-05-21T20:17:18.829Z,5.30
2023-05-21T20:19:48.986Z,5.40
2023-05-21T20:22:16.013Z,4.75
2023-05-21T20:24:43.861Z,4.28
2023-05-21T20:27:10.462Z,4.20
2023-05-21T20:29:37.022Z,4.93
2023-05-21T20:32:03.681Z,5.32
2023-05-21T20:34:30.760Z,5.35
2023-05-21T20:36:58.263Z,4.57
2023-05-21T20:39:27.354Z,4.70
2023-05-21T20:41:55.124Z,4.55
2023-05-21T20:44:22.379Z,4.00
2023-05-21T20:46:49.153Z,4.18
2023-05-21T20:49:17.618Z,3.88
2023-05-21T20:51:44.553Z,4.22
2023-05-21T20:54:11.920Z,4.28
2023-05-21T20:56:42.712Z,4.85
2023-05-21T20:59:11.227Z,4.97
2023-05-21T21:01:39.219Z,4.30
2023-05-21T21:04:06.093Z,4.10
2023-05-21T21:06:33.833Z,4.68
2023-05-21T21:09:00.365Z,4.25
2023-05-21T21:11:27.134Z,4.30
2023-05-21T21:13:53.702Z,3.97
2023-05-21T21:16:20.342Z,4.60
2023-05-21T21:18:47.190Z,3.85
2023-05-21T21:21:13.904Z,4.18
2023-05-21T21:23:40.510Z,4.35
2023-05-21T21:26:07.208Z,4.00
2023-05-21T21:28:34.061Z,3.83
2023-05-21T21:31:00.786Z,3.80
2023-05-21T21:33:28.474Z,3.67
2023-05-21T21:35:55.188Z,3.55
2023-05-21T21:38:22.011Z,3.75
2023-05-21T21:40:48.682Z,4.05
2023-05-21T21:43:15.340Z,4.32
2023-05-21T21:45:42.000Z,3.63
2023-05-21T21:48:08.669Z,3.90
2023-05-21T21:50:35.425Z,3.90
2023-05-21T21:53:03.627Z,4.03
2023-05-21T21:55:30.366Z,3.67
2023-05-21T21:57:56.930Z,4.03
2023-05-21T22:00:26.728Z,3.58
2023-05-21T22:02:53.976Z,3.60
2023-05-21T22:05:20.954Z,4.10
2023-05-21T22:07:47.888Z,4.03
2023-05-21T22:10:16.198Z,3.33
2023-05-21T22:12:43.196Z,3.42
2023-05-21T22:15:18.409Z,4.05
2023-05-21T22:17:45.113Z,3.35
2023-05-21T22:20:11.654Z,3.60
2023-05-21T22:22:38.180Z,3.90
2023-05-21T22:25:05.158Z,3.20
2023-05-21T22:27:31.684Z,3.55
2023-05-21T22:29:58.508Z,3.50
2023-05-21T22:32:25.104Z,3.33
2023-05-21T22:34:51.626Z,3.95
2023-05-21T22:37:19.036Z,3.47
2023-05-21T22:39:45.656Z,3.50
2023-05-21T22:42:12.251Z,4.45
2023-05-21T22:44:38.837Z,3.42
2023-05-21T22:47:05.436Z,3.70
2023-05-21T22:49:32.808Z,3.80
2023-05-21T22:52:05.312Z,3.90
2023-05-21T22:54:32.774Z,3.80
2023-05-21T22:57:01.103Z,3.20
2023-05-21T22:59:32.306Z,3.45
2023-05-21T23:01:59.462Z,4.15
2023-05-21T23:04:42.753Z,3.70
2023-05-21T23:07:10.806Z,3.58
2023-05-21T23:09:37.486Z,3.95
2023-05-21T23:12:04.351Z,3.58
2023-05-21T23:14:31.134Z,3.97
2023-05-21T23:17:01.785Z,3.13
2023-05-21T23:19:29.493Z,3.83
2023-05-21T23:21:56.385Z,3.80
2023-05-21T23:24:23.111Z,3.88
2023-05-21T23:26:49.841Z,3.85
2023-05-21T23:29:16.623Z,4.22
2023-05-21T23:31:43.704Z,3.58
2023-05-21T23:34:10.705Z,3.75
2023-05-21T23:36:37.295Z,3.45
2023-05-21T23:39:03.917Z,3.63
2023-05-21T23:41:30.561Z,3.60
2023-05-21T23:43:57.069Z,3.58
2023-05-21T23:46:23.656Z,3.70
2023-05-21T23:48:50.314Z,3.13
2023-05-21T23:51:18.328Z,3.47
2023-05-21T23:53:45.407Z,3.80
2023-05-21T23:56:12.018Z,3.45
2023-05-21T23:58:38.563Z,3.60
